Time;durP1;ratioP1;P1;durP2;ratioP2;P2;SDS_P1;SDS_P2;PMS_P1;PMS_P2;Temp;Humidity;BMP_temperature;BMP_pressure;BME280_temperature;BME280_humidity;BME280_pressure;Samples;Min_cycle;Max_cycle;Signal;HPM_P1;HPM_P2
2022/11/19 00:08:44;;;;;;;1.40;0.47;;;;;;;;;;20995184;28;20049;-62
2022/11/19 00:18:46;;;;;;;0.85;0.40;;;;;;;;;;21008860;28;20134;-62
2022/11/19 00:28:48;;;;;;;1.65;0.52;;;;;;;;;;21008133;28;20114;-64
2022/11/19 00:38:50;;;;;;;0.30;0.20;;;;;;;;;;21008782;28;20048;-61
2022/11/19 00:48:52;;;;;;;0.95;0.40;;;;;;;;;;21006458;28;20068;-61
2022/11/19 00:58:54;;;;;;;5.82;0.52;;;;;;;;;;20988247;28;20053;-61
2022/11/19 01:08:57;;;;;;;0.70;0.32;;;;;;;;;;21005356;28;20079;-59
2022/11/19 01:18:59;;;;;;;2.05;0.30;;;;;;;;;;21004309;28;20049;-61
2022/11/19 01:29:01;;;;;;;2.47;0.57;;;;;;;;;;21003105;28;20594;-61
2022/11/19 01:39:03;;;;;;;0.80;0.30;;;;;;;;;;21002703;28;20052;-59
2022/11/19 01:49:11;;;;;;;2.67;0.38;;;;;;;;;;21001718;28;20098;-62
2022/11/19 01:59:15;;;;;;;0.80;0.20;;;;;;;;;;21001492;28;20114;-61
2022/11/19 02:09:17;;;;;;;1.50;0.38;;;;;;;;;;21000963;28;20086;-63
2022/11/19 02:19:28;;;;;;;0.75;0.20;;;;;;;;;;21000221;28;20056;-61
2022/11/19 02:29:31;;;;;;;2.13;0.40;;;;;;;;;;20998246;28;20063;-63
2022/11/19 02:39:39;;;;;;;0.98;0.30;;;;;;;;;;20998351;28;20048;-62
2022/11/19 02:49:44;;;;;;;0.98;0.22;;;;;;;;;;20997072;28;20056;-62
2022/11/19 03:10:29;;;;;;;;;;;;;;;;;;20996613;28;20076;-62
2022/11/19 03:21:01;;;;;;;1.00;0.20;;;;;;;;;;20996294;28;20015;-62
2022/11/19 03:31:05;;;;;;;1.02;0.35;;;;;;;;;;20740299;28;20074;-61
2022/11/19 03:41:09;;;;;;;1.25;0.60;;;;;;;;;;20739918;28;20057;-62
2022/11/19 03:51:14;;;;;;;3.13;0.60;;;;;;;;;;20752920;28;20056;-62
2022/11/19 04:01:17;;;;;;;1.40;0.40;;;;;;;;;;20823664;28;20052;-63
2022/11/19 04:11:21;;;;;;;1.33;0.75;;;;;;;;;;20992647;28;20063;-63
2022/11/19 04:21:25;;;;;;;2.30;0.20;;;;;;;;;;21009243;28;20049;-63
2022/11/19 04:31:29;;;;;;;0.88;0.30;;;;;;;;;;21008154;28;20064;-62
2022/11/19 04:41:32;;;;;;;3.70;0.43;;;;;;;;;;21008210;28;20480;-62
2022/11/19 04:51:34;;;;;;;1.35;0.30;;;;;;;;;;21006227;28;20052;-61
2022/11/19 05:01:36;;;;;;;2.13;0.40;;;;;;;;;;21004357;28;20102;-62
2022/11/19 05:11:38;;;;;;;1.75;0.20;;;;;;;;;;21005282;28;20051;-62
2022/11/19 05:21:40;;;;;;;2.55;0.30;;;;;;;;;;21003765;28;20052;-64
2022/11/19 05:31:42;;;;;;;2.42;0.20;;;;;;;;;;21003229;28;20444;-63
2022/11/19 05:41:45;;;;;;;3.25;0.40;;;;;;;;;;21003583;28;20052;-63
2022/11/19 05:51:46;;;;;;;1.02;0.30;;;;;;;;;;21002142;28;20105;-63
2022/11/19 06:01:48;;;;;;;1.83;0.38;;;;;;;;;;20983746;28;20058;-62
2022/11/19 06:11:50;;;;;;;4.10;0.47;;;;;;;;;;20981251;28;20045;-62
2022/11/19 06:21:53;;;;;;;2.42;0.45;;;;;;;;;;20999042;28;20145;-61
2022/11/19 06:31:55;;;;;;;3.92;0.82;;;;;;;;;;20998541;28;20053;-61
2022/11/19 06:42:34;;;;;;;1.67;0.35;;;;;;;;;;20997515;28;20048;-61
2022/11/19 06:52:19;;;;;;;1.42;0.50;;;;;;;;;;20998492;28;20056;-60
2022/11/19 07:02:21;;;;;;;1.63;0.52;;;;;;;;;;20996482;28;20156;-62
2022/11/19 07:12:23;;;;;;;1.10;0.45;;;;;;;;;;20978411;28;20040;-63
2022/11/19 07:22:26;;;;;;;1.67;0.40;;;;;;;;;;20996043;28;20102;-63
2022/11/19 07:32:28;;;;;;;0.70;0.30;;;;;;;;;;20995881;28;20441;-61
2022/11/19 07:42:49;;;;;;;2.97;0.50;;;;;;;;;;20995850;28;20404;-62
2022/11/19 07:52:51;;;;;;;3.03;0.50;;;;;;;;;;20994435;28;20064;-63
2022/11/19 08:02:53;;;;;;;1.42;0.40;;;;;;;;;;20975886;28;20040;-63
2022/11/19 08:13:04;;;;;;;0.93;0.43;;;;;;;;;;20993636;28;20139;-60
2022/11/19 08:23:05;;;;;;;3.28;0.40;;;;;;;;;;20993744;28;20076;-62
2022/11/19 08:33:08;;;;;;;0.93;0.22;;;;;;;;;;20998748;28;20475;-62
2022/11/19 08:43:09;;;;;;;2.83;0.30;;;;;;;;;;21007263;28;20521;-63
2022/11/19 08:53:11;;;;;;;1.73;0.60;;;;;;;;;;21006366;28;20508;-61
2022/11/19 09:03:13;;;;;;;1.08;0.25;;;;;;;;;;21006612;28;20052;-61
2022/11/19 09:13:14;;;;;;;1.10;0.40;;;;;;;;;;21005680;28;20527;-61
2022/11/19 09:23:16;;;;;;;5.85;2.60;;;;;;;;;;21004314;28;20139;-60
2022/11/19 09:33:18;;;;;;;1.17;0.40;;;;;;;;;;21002593;28;20055;-61
2022/11/19 09:43:34;;;;;;;1.75;0.40;;;;;;;;;;21002475;28;20072;-62
2022/11/19 09:53:45;;;;;;;0.93;0.20;;;;;;;;;;21001316;28;20058;-61
2022/11/19 10:03:51;;;;;;;2.42;0.30;;;;;;;;;;21001623;28;20071;-62
2022/11/19 10:13:59;;;;;;;1.23;0.30;;;;;;;;;;21000585;28;20056;-61
2022/11/19 10:24:22;;;;;;;0.97;0.30;;;;;;;;;;20999639;28;20114;-62
2022/11/19 10:34:25;;;;;;;1.63;0.28;;;;;;;;;;20998279;28;20084;-61
2022/11/19 10:44:46;;;;;;;1.95;0.32;;;;;;;;;;20998299;28;20046;-62
2022/11/19 10:54:50;;;;;;;3.35;0.70;;;;;;;;;;20995935;28;20424;-60
2022/11/19 11:05:11;;;;;;;3.05;0.90;;;;;;;;;;20996529;28;20468;-63
2022/11/19 11:15:16;;;;;;;3.95;0.85;;;;;;;;;;20995533;28;20056;-62
2022/11/19 11:25:20;;;;;;;12.95;2.97;;;;;;;;;;20995236;28;20094;-62
2022/11/19 11:35:30;;;;;;;8.35;3.45;;;;;;;;;;20995752;28;20419;-62
2022/11/19 11:45:33;;;;;;;4.07;0.70;;;;;;;;;;20994850;28;20052;-62
2022/11/19 11:55:37;;;;;;;0.75;0.30;;;;;;;;;;20976033;28;20132;-62
2022/11/19 12:05:39;;;;;;;0.65;0.20;;;;;;;;;;20996356;28;20055;-62
2022/11/19 12:15:43;;;;;;;2.28;0.50;;;;;;;;;;21008034;28;20048;-62
2022/11/19 12:25:49;;;;;;;1.95;0.22;;;;;;;;;;21007500;28;20505;-62
2022/11/19 12:35:54;;;;;;;4.43;0.93;;;;;;;;;;20988170;28;20055;-62
2022/11/19 12:45:59;;;;;;;4.70;0.68;;;;;;;;;;21008191;28;20045;-60
2022/11/19 12:56:23;;;;;;;1.52;0.57;;;;;;;;;;21006774;28;20048;-60
2022/11/19 13:06:28;;;;;;;1.08;0.55;;;;;;;;;;21005641;28;20055;-61
2022/11/19 13:16:32;;;;;;;1.10;0.63;;;;;;;;;;21002918;28;20048;-61
2022/11/19 13:26:35;;;;;;;3.70;1.67;;;;;;;;;;21002534;28;20052;-62
2022/11/19 13:36:41;;;;;;;2.40;0.50;;;;;;;;;;20985146;28;20133;-63
2022/11/19 13:46:45;;;;;;;1.13;0.47;;;;;;;;;;21002137;28;20059;-62
2022/11/19 13:56:49;;;;;;;7.57;3.20;;;;;;;;;;21001900;28;20135;-62
2022/11/19 14:06:50;;;;;;;4.43;1.73;;;;;;;;;;21000972;28;20044;-62
2022/11/19 14:27:21;;;;;;;2.83;1.35;;;;;;;;;;20998506;28;20101;-62
2022/11/19 14:37:25;;;;;;;3.17;1.17;;;;;;;;;;20998114;28;20056;-60
2022/11/19 14:47:26;;;;;;;4.30;1.58;;;;;;;;;;20997311;28;20091;-61
2022/11/19 14:57:34;;;;;;;3.72;1.02;;;;;;;;;;20998243;28;20056;-64
2022/11/19 15:07:38;;;;;;;5.03;2.00;;;;;;;;;;20996515;28;20135;-63
2022/11/19 15:17:40;;;;;;;5.85;1.20;;;;;;;;;;20996746;28;20086;-62
2022/11/19 15:27:42;;;;;;;2.90;0.40;;;;;;;;;;20995152;28;20048;-63
2022/11/19 15:38:04;;;;;;;3.35;0.38;;;;;;;;;;20994958;28;20083;-60
2022/11/19 15:48:05;;;;;;;0.77;0.32;;;;;;;;;;21010355;28;20477;-62
2022/11/19 15:58:13;;;;;;;1.17;0.32;;;;;;;;;;21010825;28;20048;-62
2022/11/19 16:08:15;;;;;;;1.50;0.57;;;;;;;;;;21010877;28;20503;-61
2022/11/19 16:18:18;;;;;;;0.98;0.20;;;;;;;;;;21009689;28;20044;-62
2022/11/19 16:28:25;;;;;;;1.63;0.50;;;;;;;;;;21008551;28;20052;-61
2022/11/19 16:38:28;;;;;;;22.40;6.53;;;;;;;;;;21008737;28;20071;-60
2022/11/19 16:48:35;;;;;;;11.70;3.25;;;;;;;;;;21007937;28;20440;-63
2022/11/19 16:58:37;;;;;;;10.38;3.55;;;;;;;;;;21007999;28;20481;-60
2022/11/19 17:08:39;;;;;;;14.55;4.68;;;;;;;;;;21007205;28;20059;-63
2022/11/19 17:18:41;;;;;;;2.85;0.93;;;;;;;;;;21005353;28;20071;-62
2022/11/19 17:28:45;;;;;;;2.08;1.00;;;;;;;;;;21004389;28;20088;-62
2022/11/19 17:38:47;;;;;;;7.25;3.05;;;;;;;;;;21004576;28;20135;-64
2022/11/19 17:48:49;;;;;;;1.58;0.60;;;;;;;;;;21002482;28;20044;-61
2022/11/19 17:58:51;;;;;;;2.33;1.00;;;;;;;;;;20984995;28;20064;-62
2022/11/19 18:08:53;;;;;;;2.30;0.60;;;;;;;;;;21001667;28;20127;-62
2022/11/19 18:18:55;;;;;;;1.55;0.55;;;;;;;;;;20999654;28;20485;-61
2022/11/19 18:28:57;;;;;;;3.70;0.82;;;;;;;;;;20998976;28;20454;-61
2022/11/19 18:38:59;;;;;;;1.58;0.60;;;;;;;;;;20999171;28;20063;-62
2022/11/19 18:49:01;;;;;;;2.45;0.88;;;;;;;;;;20998564;28;20040;-60
2022/11/19 18:59:03;;;;;;;2.85;0.65;;;;;;;;;;20996903;28;20048;-62
2022/11/19 19:09:05;;;;;;;1.85;0.57;;;;;;;;;;20979862;28;20052;-62
2022/11/19 19:19:07;;;;;;;3.70;0.77;;;;;;;;;;20995048;28;20083;-62
2022/11/19 19:29:09;;;;;;;2.60;0.70;;;;;;;;;;20995157;28;20048;-62
2022/11/19 19:39:10;;;;;;;2.70;0.70;;;;;;;;;;20995719;28;20053;-61
2022/11/19 19:49:12;;;;;;;1.83;0.98;;;;;;;;;;20995311;28;20071;-62
2022/11/19 19:59:14;;;;;;;3.35;0.80;;;;;;;;;;20994559;28;20526;-63
2022/11/19 20:09:16;;;;;;;2.47;0.77;;;;;;;;;;20993818;28;20408;-63
2022/11/19 20:19:18;;;;;;;2.72;0.90;;;;;;;;;;20994491;28;20450;-61
2022/11/19 20:29:21;;;;;;;15.73;5.60;;;;;;;;;;20999689;28;20040;-62
2022/11/19 20:39:22;;;;;;;2.58;1.35;;;;;;;;;;21007866;28;20059;-64
2022/11/19 20:49:26;;;;;;;2.65;0.98;;;;;;;;;;21007277;28;20044;-62
2022/11/19 20:59:31;;;;;;;3.25;1.10;;;;;;;;;;21007015;28;20048;-64
2022/11/19 21:09:33;;;;;;;2.97;1.00;;;;;;;;;;21006182;28;20144;-62
2022/11/19 21:19:35;;;;;;;2.90;0.85;;;;;;;;;;21004621;28;20049;-63
2022/11/19 21:29:37;;;;;;;2.50;1.00;;;;;;;;;;21004393;28;20045;-63
2022/11/19 21:39:39;;;;;;;2.25;0.82;;;;;;;;;;21001819;28;20140;-64
2022/11/19 21:49:41;;;;;;;3.30;0.70;;;;;;;;;;20984084;28;20511;-63
2022/11/19 21:59:42;;;;;;;5.00;0.90;;;;;;;;;;21002445;28;20052;-63
2022/11/19 22:09:44;;;;;;;4.65;0.68;;;;;;;;;;21000913;28;20420;-64
2022/11/19 22:19:46;;;;;;;7.10;0.88;;;;;;;;;;20999973;28;20136;-61
2022/11/19 22:29:48;;;;;;;2.90;0.95;;;;;;;;;;20999250;28;20408;-64
2022/11/19 22:39:50;;;;;;;2.50;0.90;;;;;;;;;;20998351;28;20044;-64
2022/11/19 22:49:51;;;;;;;1.65;0.60;;;;;;;;;;20997794;28;20047;-61
2022/11/19 22:59:53;;;;;;;2.33;0.73;;;;;;;;;;20997451;28;20170;-63
2022/11/19 23:09:55;;;;;;;3.22;1.08;;;;;;;;;;20978251;28;20053;-64
2022/11/19 23:19:57;;;;;;;8.13;3.10;;;;;;;;;;20996098;28;20056;-62
2022/11/19 23:29:58;;;;;;;3.05;1.80;;;;;;;;;;20996048;28;20041;-62
2022/11/19 23:40:00;;;;;;;1.17;0.80;;;;;;;;;;20995502;28;20084;-63
2022/11/19 23:50:02;;;;;;;6.13;2.45;;;;;;;;;;20995293;28;20398;-62
